createdAt,value
2022-11-15T00:01:39.719Z,100406.66
2022-11-15T00:04:42.126Z,100401.47
2022-11-15T00:07:55.066Z,100409.00
2022-11-15T00:11:00.439Z,100408.00
2022-11-15T00:14:05.752Z,100410.47
2022-11-15T00:17:08.087Z,100401.78
2022-11-15T00:20:10.997Z,100395.66
2022-11-15T00:23:13.544Z,100393.84
2022-11-15T00:26:16.501Z,100403.53
2022-11-15T00:32:54.029Z,100413.13
2022-11-15T00:36:23.146Z,100402.75
2022-11-15T00:39:25.922Z,100401.78
2022-11-15T00:42:28.753Z,100392.06
2022-11-15T00:45:31.554Z,100394.56
2022-11-15T00:48:34.508Z,100387.66
2022-11-15T00:51:37.365Z,100383.13
2022-11-15T00:54:40.363Z,100384.91
2022-11-15T00:57:42.755Z,100393.59
2022-11-15T01:00:45.180Z,100391.88
2022-11-15T01:03:47.475Z,100402.00
2022-11-15T01:06:49.793Z,100385.28
2022-11-15T01:09:52.025Z,100385.28
2022-11-15T01:12:54.325Z,100385.28
2022-11-15T01:15:56.477Z,100371.19
2022-11-15T01:18:58.840Z,100372.84
2022-11-15T01:22:01.028Z,100370.31
2022-11-15T01:25:03.273Z,100369.41
2022-11-15T01:28:05.472Z,100377.28
2022-11-15T01:31:12.958Z,100380.84
2022-11-15T01:34:16.295Z,100366.97
2022-11-15T01:37:18.484Z,100371.22
2022-11-15T01:40:21.656Z,100360.00
2022-11-15T01:43:23.747Z,100365.25
2022-11-15T01:46:37.106Z,100373.97
2022-11-15T01:49:43.237Z,100373.25
2022-11-15T01:52:45.446Z,100371.59
2022-11-15T01:55:47.872Z,100372.41
2022-11-15T01:58:52.741Z,100367.81
2022-11-15T02:01:55.089Z,100369.66
2022-11-15T02:04:57.538Z,100368.69
2022-11-15T02:08:01.678Z,100362.63
2022-11-15T02:11:09.009Z,100348.63
2022-11-15T02:14:13.138Z,100345.09
2022-11-15T02:17:34.069Z,100341.47
2022-11-15T02:20:49.212Z,100333.47
2022-11-15T02:24:24.248Z,100334.53
2022-11-15T02:27:44.686Z,100333.84
2022-11-15T02:31:01.876Z,100328.59
2022-11-15T02:34:24.738Z,100320.72
2022-11-15T02:37:40.636Z,100322.50
2022-11-15T02:41:00.622Z,100308.56
2022-11-15T02:44:11.480Z,100293.88
2022-11-15T02:47:17.875Z,100306.03
2022-11-15T02:50:25.667Z,100296.38
2022-11-15T02:53:28.755Z,100299.97
2022-11-15T02:56:31.155Z,100300.03
2022-11-15T02:59:55.647Z,100302.66
2022-11-15T03:03:34.627Z,100296.50
2022-11-15T03:06:42.298Z,100296.50
2022-11-15T03:09:54.137Z,100298.19
2022-11-15T03:13:01.132Z,100290.31
2022-11-15T03:16:12.469Z,100286.84
2022-11-15T03:19:35.930Z,100281.47
2022-11-15T03:22:43.886Z,100282.19
2022-11-15T03:25:49.769Z,100283.97
2022-11-15T03:28:58.917Z,100285.59
2022-11-15T03:32:10.839Z,100282.06
2022-11-15T03:35:19.823Z,100278.66
2022-11-15T03:38:26.298Z,100274.31
2022-11-15T03:41:47.814Z,100258.50
2022-11-15T03:45:11.410Z,100267.91
2022-11-15T03:48:22.851Z,100263.38
2022-11-15T03:51:25.155Z,100262.53
2022-11-15T03:54:27.437Z,100249.38
2022-11-15T03:57:29.752Z,100250.09
2022-11-15T04:00:35.583Z,100255.28
2022-11-15T04:03:37.764Z,100257.13
2022-11-15T04:06:39.975Z,100258.84
2022-11-15T04:10:00.859Z,100264.88
2022-11-15T04:13:03.960Z,100252.53
2022-11-15T04:16:06.355Z,100255.16
2022-11-15T04:19:27.330Z,100257.63
2022-11-15T04:22:48.036Z,100251.47
2022-11-15T04:25:54.156Z,100253.94
2022-11-15T04:29:15.149Z,100246.03
2022-11-15T04:32:17.340Z,100232.03
2022-11-15T04:35:19.496Z,100233.87
2022-11-15T04:38:21.691Z,100234.66
2022-11-15T04:41:23.999Z,100226.91
2022-11-15T04:44:26.309Z,100228.62
2022-11-15T04:47:29.266Z,100233.87
2022-11-15T04:50:34.443Z,100241.75
2022-11-15T04:53:36.643Z,100260.28
2022-11-15T04:56:38.944Z,100248.19
2022-11-15T04:59:41.502Z,100261.31
2022-11-15T05:03:02.235Z,100255.41
2022-11-15T05:06:04.600Z,100254.37
2022-11-15T05:09:07.221Z,100240.37
2022-11-15T05:12:09.579Z,100250.16
2022-11-15T05:15:11.944Z,100251.88
2022-11-15T05:18:15.573Z,100245.62
2022-11-15T05:21:20.689Z,100242.94
2022-11-15T05:24:22.870Z,100242.94
2022-11-15T05:27:25.043Z,100244.00
2022-11-15T05:30:29.585Z,100243.87
2022-11-15T05:33:32.955Z,100236.97
2022-11-15T05:36:39.354Z,100234.22
2022-11-15T05:39:41.732Z,100236.84
2022-11-15T05:42:44.125Z,100230.56
2022-11-15T05:45:46.462Z,100234.06
2022-11-15T05:48:51.527Z,100236.56
2022-11-15T05:51:55.205Z,100241.06
2022-11-15T05:54:59.218Z,100235.81
2022-11-15T05:58:02.477Z,100242.94
2022-11-15T06:01:05.810Z,100229.09
2022-11-15T06:04:07.975Z,100241.88
2022-11-15T06:07:10.273Z,100242.72
2022-11-15T06:10:12.747Z,100238.19
2022-11-15T06:13:15.609Z,100243.25
2022-11-15T06:16:17.894Z,100231.78
2022-11-15T06:19:20.114Z,100235.16
2022-11-15T06:22:22.290Z,100232.50
2022-11-15T06:25:24.597Z,100250.94
2022-11-15T06:28:30.790Z,100250.03
2022-11-15T06:31:33.043Z,100246.53
2022-11-15T06:34:37.059Z,100253.50
2022-11-15T06:37:39.297Z,100247.41
2022-11-15T06:40:42.390Z,100242.91
2022-11-15T06:43:45.019Z,100242.66
2022-11-15T06:46:47.257Z,100242.66
2022-11-15T06:49:49.632Z,100240.81
2022-11-15T06:52:51.988Z,100242.25
2022-11-15T06:55:55.659Z,100238.69
2022-11-15T06:58:58.146Z,100237.78
2022-11-15T07:02:01.035Z,100245.94
2022-11-15T07:05:03.277Z,100236.94
2022-11-15T07:08:08.703Z,100235.91
2022-11-15T07:11:11.142Z,100234.88
2022-11-15T07:14:13.854Z,100225.97
2022-11-15T07:17:16.065Z,100213.78
2022-11-15T07:20:21.904Z,100218.38
2022-11-15T07:23:24.054Z,100214.19
2022-11-15T07:26:26.205Z,100212.22
2022-11-15T07:29:28.884Z,100213.78
2022-11-15T07:32:31.227Z,100215.47
2022-11-15T07:35:33.421Z,100215.75
2022-11-15T07:38:42.505Z,100215.62
2022-11-15T07:41:45.112Z,100202.34
2022-11-15T07:44:47.818Z,100202.41
2022-11-15T07:47:51.319Z,100207.53
2022-11-15T07:50:53.903Z,100208.25
2022-11-15T07:53:56.503Z,100194.16
2022-11-15T07:57:03.862Z,100193.81
2022-11-15T08:00:09.618Z,100196.72
2022-11-15T08:03:16.971Z,100189.84
2022-11-15T08:06:19.261Z,100190.47
2022-11-15T08:09:21.545Z,100187.06
2022-11-15T08:12:23.951Z,100185.13
2022-11-15T08:15:26.502Z,100187.06
2022-11-15T08:18:28.925Z,100180.81
2022-11-15T08:21:31.229Z,100182.44
2022-11-15T08:24:33.450Z,100188.31
2022-11-15T08:27:35.660Z,100179.63
2022-11-15T08:30:43.892Z,100190.16
2022-11-15T08:33:46.421Z,100180.72
2022-11-15T08:36:48.698Z,100191.03
2022-11-15T08:39:50.865Z,100172.69
2022-11-15T08:42:53.130Z,100177.00
2022-11-15T08:45:57.903Z,100166.56
2022-11-15T08:49:00.157Z,100173.63
2022-11-15T08:52:02.491Z,100172.91
2022-11-15T08:55:05.264Z,100167.72
2022-11-15T08:58:08.120Z,100170.91
2022-11-15T09:01:20.019Z,100159.53
2022-11-15T09:04:22.609Z,100169.59
2022-11-15T09:07:25.935Z,100169.03
2022-11-15T09:10:29.599Z,100177.38
2022-11-15T09:13:31.928Z,100173.97
2022-11-15T09:16:34.287Z,100164.31
2022-11-15T09:19:36.646Z,100171.84
2022-11-15T09:22:40.326Z,100162.03
2022-11-15T09:25:42.511Z,100169.56
2022-11-15T09:28:44.966Z,100169.19
2022-11-15T09:31:47.179Z,100167.00
2022-11-15T09:34:49.375Z,100171.44
2022-11-15T09:37:56.116Z,100172.28
2022-11-15T09:41:13.708Z,100174.06
2022-11-15T09:44:47.692Z,100169.88
2022-11-15T09:48:20.348Z,100160.16
2022-11-15T09:51:36.414Z,100172.47
2022-11-15T09:54:55.983Z,100156.72
2022-11-15T09:58:23.913Z,100157.56
2022-11-15T10:01:42.952Z,100145.66
2022-11-15T10:04:45.413Z,100142.31
2022-11-15T10:08:04.707Z,100132.88
2022-11-15T10:11:38.311Z,100131.31
2022-11-15T10:14:42.689Z,100136.38
2022-11-15T10:18:05.040Z,100128.37
2022-11-15T10:21:40.177Z,100122.75
2022-11-15T10:24:44.674Z,100115.13
2022-11-15T10:31:52.289Z,100104.50
2022-11-15T10:34:54.560Z,100099.41
2022-11-15T10:38:11.029Z,100095.44
2022-11-15T10:41:14.116Z,100083.44
2022-11-15T10:44:21.786Z,100071.31
2022-11-15T10:47:39.013Z,100070.56
2022-11-15T10:50:47.835Z,100068.84
2022-11-15T10:53:52.355Z,100061.41
2022-11-15T10:56:57.498Z,100055.81
2022-11-15T11:00:22.205Z,100053.41
2022-11-15T11:03:40.677Z,100043.41
2022-11-15T11:06:56.885Z,100033.72
2022-11-15T11:10:49.093Z,100034.75
2022-11-15T11:13:41.825Z,100034.81
2022-11-15T11:16:53.321Z,100043.56
2022-11-15T11:20:04.788Z,100034.81
2022-11-15T11:23:32.040Z,100027.44
2022-11-15T11:26:50.576Z,100029.00
2022-11-15T11:30:47.543Z,100029.16
2022-11-15T11:34:20.560Z,100011.62
2022-11-15T11:37:50.335Z,100013.34
2022-11-15T11:41:17.668Z,100009.16
2022-11-15T11:44:25.723Z,99997.19
2022-11-15T11:47:36.217Z,99994.47
2022-11-15T11:50:40.190Z,99984.22
2022-11-15T11:53:54.366Z,99984.44
2022-11-15T11:57:00.746Z,99980.13
2022-11-15T12:00:15.683Z,99981.91
2022-11-15T12:03:40.682Z,99973.06
2022-11-15T12:06:50.773Z,99970.00
2022-11-15T12:10:15.639Z,99952.59
2022-11-15T12:13:23.101Z,99948.94
2022-11-15T12:16:29.571Z,99950.72
2022-11-15T12:19:32.273Z,99940.63
2022-11-15T12:22:42.244Z,99942.97
2022-11-15T12:26:13.889Z,99942.72
2022-11-15T12:29:40.931Z,99946.44
2022-11-15T12:32:59.297Z,99937.38
2022-11-15T12:36:04.859Z,99929.41
2022-11-15T12:39:15.128Z,99922.88
2022-11-15T12:42:23.209Z,99919.50
2022-11-15T12:45:27.614Z,99916.63
2022-11-15T12:48:38.967Z,99916.63
2022-11-15T12:51:44.209Z,99910.16
2022-11-15T12:54:55.243Z,99899.63
2022-11-15T12:58:40.321Z,99892.66
2022-11-15T13:01:42.473Z,99900.47
2022-11-15T13:04:44.791Z,99892.91
2022-11-15T13:07:46.939Z,99891.78
2022-11-15T13:10:49.991Z,99891.78
2022-11-15T13:13:52.245Z,99871.66
2022-11-15T13:17:00.426Z,99870.72
2022-11-15T13:20:02.618Z,99866.38
2022-11-15T13:23:16.893Z,99885.00
2022-11-15T13:26:19.215Z,99875.62
2022-11-15T13:29:21.768Z,99865.19
2022-11-15T13:32:24.342Z,99864.41
2022-11-15T13:35:29.834Z,99849.44
2022-11-15T13:38:34.920Z,99848.44
2022-11-15T13:41:48.435Z,99844.19
2022-11-15T13:45:03.058Z,99853.69
2022-11-15T13:48:07.332Z,99858.97
2022-11-15T13:51:21.558Z,99859.91
2022-11-15T13:54:33.435Z,99846.91
2022-11-15T13:57:44.855Z,99849.19
2022-11-15T14:00:48.416Z,99842.25
2022-11-15T14:03:58.673Z,99836.88
2022-11-15T14:07:03.301Z,99830.16
2022-11-15T14:10:27.036Z,99826.69
2022-11-15T14:13:32.511Z,99835.59
2022-11-15T14:16:40.560Z,99831.28
2022-11-15T14:19:42.807Z,99829.59
2022-11-15T14:22:53.931Z,99820.56
2022-11-15T14:26:00.390Z,99821.53
2022-11-15T14:29:28.866Z,99816.16
2022-11-15T14:32:45.177Z,99805.59
2022-11-15T14:35:47.559Z,99807.28
2022-11-15T14:38:49.728Z,99807.22
2022-11-15T14:41:52.132Z,99798.66
2022-11-15T14:44:54.685Z,99799.56
2022-11-15T14:47:56.852Z,99798.66
2022-11-15T14:50:59.123Z,99805.78
2022-11-15T14:54:01.401Z,99787.44
2022-11-15T14:57:03.665Z,99788.81
2022-11-15T15:00:06.607Z,99791.16
2022-11-15T15:03:09.610Z,99791.09
2022-11-15T15:06:18.055Z,99788.47
2022-11-15T15:09:20.849Z,99785.91
2022-11-15T15:12:24.722Z,99783.25
2022-11-15T15:15:32.631Z,99776.22
2022-11-15T15:18:35.317Z,99768.34
2022-11-15T15:21:38.834Z,99761.16
2022-11-15T15:24:41.125Z,99768.41
2022-11-15T15:27:43.398Z,99755.41
2022-11-15T15:30:50.613Z,99756.53
2022-11-15T15:33:52.890Z,99754.84
2022-11-15T15:37:26.749Z,99747.78
2022-11-15T15:40:32.205Z,99753.12
2022-11-15T15:43:34.442Z,99746.19
2022-11-15T15:46:36.655Z,99738.34
2022-11-15T15:49:39.215Z,99738.53
2022-11-15T15:52:41.538Z,99736.00
2022-11-15T15:55:43.971Z,99728.16
2022-11-15T15:58:46.116Z,99729.78
2022-11-15T16:01:48.548Z,99725.28
2022-11-15T16:04:50.999Z,99723.59
2022-11-15T16:07:53.274Z,99719.72
2022-11-15T16:10:55.882Z,99719.87
2022-11-15T16:13:58.325Z,99720.84
2022-11-15T16:17:00.596Z,99720.91
2022-11-15T16:20:02.933Z,99713.94
2022-11-15T16:23:12.422Z,99714.13
2022-11-15T16:26:36.128Z,99707.19
2022-11-15T16:29:38.400Z,99700.28
2022-11-15T16:32:40.657Z,99702.25
2022-11-15T16:35:43.012Z,99694.53
2022-11-15T16:38:45.510Z,99695.63
2022-11-15T16:41:48.046Z,99689.63
2022-11-15T16:44:50.377Z,99687.84
2022-11-15T16:47:54.016Z,99677.31
2022-11-15T16:50:59.610Z,99679.34
2022-11-15T16:54:01.965Z,99676.66
2022-11-15T16:57:04.253Z,99675.69
2022-11-15T17:00:07.512Z,99675.69
2022-11-15T17:03:10.348Z,99668.63
2022-11-15T17:06:14.629Z,99674.75
2022-11-15T17:09:25.423Z,99673.06
2022-11-15T17:12:27.633Z,99665.94
2022-11-15T17:15:30.245Z,99663.19
2022-11-15T17:18:32.823Z,99655.22
2022-11-15T17:21:35.272Z,99660.31
2022-11-15T17:24:38.390Z,99650.63
2022-11-15T17:27:41.169Z,99654.19
2022-11-15T17:30:46.445Z,99653.34
2022-11-15T17:33:49.134Z,99654.19
2022-11-15T17:36:51.488Z,99638.66
2022-11-15T17:39:54.187Z,99640.75
2022-11-15T17:42:58.993Z,99634.66
2022-11-15T17:46:05.713Z,99632.84
2022-11-15T17:49:08.527Z,99634.47
2022-11-15T17:52:10.914Z,99629.09
2022-11-15T17:55:13.638Z,99631.72
2022-11-15T17:58:22.116Z,99632.56
2022-11-15T18:01:26.302Z,99621.97
2022-11-15T18:04:29.385Z,99624.50
2022-11-15T18:07:31.662Z,99625.34
2022-11-15T18:10:33.993Z,99626.09
2022-11-15T18:13:38.120Z,99622.53
2022-11-15T18:16:41.113Z,99620.84
2022-11-15T18:19:43.459Z,99608.50
2022-11-15T18:22:45.759Z,99621.59
2022-11-15T18:25:52.152Z,99616.41
2022-11-15T18:29:04.350Z,99622.44
2022-11-15T18:32:14.945Z,99615.50
2022-11-15T18:35:19.924Z,99615.38
2022-11-15T18:38:22.383Z,99617.94
2022-11-15T18:41:28.582Z,99623.94
2022-11-15T18:44:31.815Z,99607.31
2022-11-15T18:47:34.558Z,99602.13
2022-11-15T18:50:37.277Z,99608.06
2022-11-15T18:53:41.185Z,99611.53
2022-11-15T18:56:47.869Z,99596.00
2022-11-15T18:59:50.355Z,99597.59
2022-11-15T19:02:56.030Z,99594.12
2022-11-15T19:06:13.046Z,99593.28
2022-11-15T19:09:17.483Z,99597.78
2022-11-15T19:12:19.697Z,99587.25
2022-11-15T19:15:22.483Z,99579.47
2022-11-15T19:18:30.537Z,99581.16
2022-11-15T19:21:33.549Z,99575.88
2022-11-15T19:24:36.271Z,99575.81
2022-11-15T19:27:38.837Z,99584.44
2022-11-15T19:30:43.417Z,99570.44
2022-11-15T19:33:46.306Z,99571.09
2022-11-15T19:36:49.545Z,99566.66
2022-11-15T19:39:52.522Z,99564.03
2022-11-15T19:42:55.407Z,99565.94
2022-11-15T19:46:02.493Z,99568.44
2022-11-15T19:49:07.679Z,99564.03
2022-11-15T19:52:10.855Z,99556.03
2022-11-15T19:55:13.655Z,99555.94
2022-11-15T19:58:16.247Z,99553.31
2022-11-15T20:01:39.668Z,99560.09
2022-11-15T20:04:42.506Z,99553.78
2022-11-15T20:07:45.175Z,99535.63
2022-11-15T20:10:49.702Z,99546.63
2022-11-15T20:13:52.467Z,99549.91
2022-11-15T20:16:54.798Z,99543.63
2022-11-15T20:19:58.649Z,99538.44
2022-11-15T20:23:03.446Z,99541.81
2022-11-15T20:26:06.044Z,99535.59
2022-11-15T20:29:10.248Z,99527.81
2022-11-15T20:32:12.726Z,99524.34
2022-11-15T20:35:15.065Z,99518.97
2022-11-15T20:38:18.239Z,99519.78
2022-11-15T20:41:20.529Z,99504.09
2022-11-15T20:44:22.749Z,99504.19
2022-11-15T20:47:30.110Z,99501.66
2022-11-15T20:50:42.616Z,99501.75
2022-11-15T20:53:46.798Z,99490.75
2022-11-15T20:56:50.455Z,99480.88
2022-11-15T20:59:53.106Z,99489.16
2022-11-15T21:02:55.449Z,99480.22
2022-11-15T21:05:57.808Z,99477.44
2022-11-15T21:09:18.441Z,99476.19
2022-11-15T21:12:21.639Z,99477.59
2022-11-15T21:15:24.113Z,99466.69
2022-11-15T21:18:26.465Z,99455.69
2022-11-15T21:21:28.762Z,99455.13
2022-11-15T21:24:31.469Z,99449.31
2022-11-15T21:27:33.767Z,99447.78
2022-11-15T21:30:36.769Z,99447.78
2022-11-15T21:33:39.246Z,99442.69
2022-11-15T21:36:41.839Z,99439.22
2022-11-15T21:39:44.061Z,99443.56
2022-11-15T21:42:46.307Z,99441.78
2022-11-15T21:46:00.551Z,99438.56
2022-11-15T21:49:04.009Z,99433.47
2022-11-15T21:52:06.277Z,99432.62
2022-11-15T21:55:09.551Z,99427.66
2022-11-15T21:58:11.796Z,99425.09
2022-11-15T22:01:33.114Z,99427.66
2022-11-15T22:04:35.437Z,99420.69
2022-11-15T22:07:38.403Z,99424.09
2022-11-15T22:10:47.399Z,99420.50
2022-11-15T22:13:49.776Z,99420.81
2022-11-15T22:16:52.090Z,99408.50
2022-11-15T22:19:54.284Z,99411.12
2022-11-15T22:23:01.865Z,99411.88
2022-11-15T22:26:05.203Z,99415.44
2022-11-15T22:29:07.815Z,99402.41
2022-11-15T22:32:10.071Z,99398.75
2022-11-15T22:35:12.454Z,99393.66
2022-11-15T22:38:14.892Z,99387.62
2022-11-15T22:41:17.186Z,99384.25
2022-11-15T22:44:19.309Z,99379.16
2022-11-15T22:47:21.870Z,99373.91
2022-11-15T22:50:26.115Z,99363.38
2022-11-15T22:53:29.303Z,99353.16
2022-11-15T22:56:31.530Z,99359.38
2022-11-15T22:59:36.029Z,99357.66
2022-11-15T23:02:38.570Z,99356.81
2022-11-15T23:05:42.080Z,99344.81
2022-11-15T23:08:44.357Z,99351.94
2022-11-15T23:12:05.323Z,99344.22
2022-11-15T23:15:33.235Z,99339.91
2022-11-15T23:19:00.109Z,99340.09
2022-11-15T23:22:40.978Z,99328.91
2022-11-15T23:26:03.272Z,99334.53
2022-11-15T23:29:07.985Z,99319.62
2022-11-15T23:32:28.973Z,99320.44
2022-11-15T23:35:31.191Z,99317.28
2022-11-15T23:38:37.630Z,99312.09
2022-11-15T23:41:39.904Z,99306.19
2022-11-15T23:44:42.139Z,99300.16
2022-11-15T23:47:45.001Z,99296.50
2022-11-15T23:50:48.551Z,99285.44
2022-11-15T23:53:50.857Z,99287.13
2022-11-15T23:56:53.059Z,99295.78
2022-11-15T23:59:55.371Z,99284.41
